createdAt,value
2022-09-12T00:00:48.852Z,10.16
2022-09-12T00:03:20.634Z,10.20
2022-09-12T00:05:50.154Z,10.08
2022-09-12T00:08:19.226Z,10.14
2022-09-12T00:10:50.269Z,10.17
2022-09-12T00:13:19.401Z,10.11
2022-09-12T00:15:48.743Z,10.16
2022-09-12T00:18:18.959Z,10.12
2022-09-12T00:20:49.304Z,10.11
2022-09-12T00:23:24.956Z,9.99
2022-09-12T00:25:56.200Z,10.04
2022-09-12T00:28:30.521Z,9.96
2022-09-12T00:30:59.482Z,10.02
2022-09-12T00:33:28.847Z,10.01
2022-09-12T00:35:57.843Z,10.03
2022-09-12T00:38:26.994Z,10.03
2022-09-12T00:40:58.239Z,10.04
2022-09-12T00:43:38.864Z,10.03
2022-09-12T00:46:16.593Z,9.96
2022-09-12T00:48:51.481Z,9.92
2022-09-12T00:51:25.851Z,9.88
2022-09-12T00:53:56.979Z,9.82
2022-09-12T00:56:35.092Z,9.79
2022-09-12T00:59:09.018Z,9.83
2022-09-12T01:01:38.987Z,9.55
2022-09-12T01:04:09.002Z,9.55
2022-09-12T01:06:41.702Z,9.51
2022-09-12T01:09:14.403Z,9.42
2022-09-12T01:11:48.215Z,9.34
2022-09-12T01:14:19.364Z,9.28
2022-09-12T01:16:53.708Z,9.22
2022-09-12T01:19:56.892Z,9.30
2022-09-12T01:22:45.726Z,9.20
2022-09-12T01:25:28.508Z,9.29
2022-09-12T01:28:32.936Z,9.32
2022-09-12T01:31:09.864Z,9.30
2022-09-12T01:33:58.232Z,9.33
2022-09-12T01:36:38.736Z,9.36
2022-09-12T01:39:14.376Z,9.33
2022-09-12T01:41:54.248Z,9.36
2022-09-12T01:44:30.577Z,9.14
2022-09-12T01:47:08.142Z,9.42
2022-09-12T01:49:42.929Z,9.37
2022-09-12T01:52:18.049Z,9.47
2022-09-12T01:54:52.848Z,9.48
2022-09-12T01:57:27.319Z,9.48
2022-09-12T02:02:52.973Z,9.49
2022-09-12T02:05:29.568Z,9.51
2022-09-12T02:08:04.622Z,9.39
2022-09-12T02:10:39.756Z,9.52
2022-09-12T02:13:20.049Z,9.50
2022-09-12T02:15:57.890Z,9.53
2022-09-12T02:18:32.761Z,9.56
2022-09-12T02:21:10.608Z,9.38
2022-09-12T02:23:45.469Z,9.47
2022-09-12T02:26:21.015Z,9.50
2022-09-12T02:28:52.273Z,9.55
2022-09-12T02:31:27.918Z,9.56
2022-09-12T02:34:11.403Z,9.53
2022-09-12T02:36:59.754Z,9.63
2022-09-12T02:39:29.137Z,9.64
2022-09-12T02:42:05.966Z,9.56
2022-09-12T02:44:37.969Z,9.63
2022-09-12T02:49:49.563Z,9.56
2022-09-12T02:52:20.289Z,9.50
2022-09-12T02:54:55.322Z,9.50
2022-09-12T02:57:29.570Z,9.51
2022-09-12T03:00:07.990Z,9.42
2022-09-12T03:02:53.884Z,9.43
2022-09-12T03:05:39.479Z,9.30
2022-09-12T03:08:25.612Z,9.43
2022-09-12T03:11:26.086Z,9.44
2022-09-12T03:14:05.601Z,9.29
2022-09-12T03:16:44.894Z,9.40
2022-09-12T03:19:23.263Z,9.39
2022-09-12T03:22:10.145Z,9.40
2022-09-12T03:24:45.817Z,9.37
2022-09-12T03:29:59.713Z,9.28
2022-09-12T03:32:45.101Z,9.34
2022-09-12T03:35:23.167Z,9.32
2022-09-12T03:37:55.039Z,9.37
2022-09-12T03:40:24.257Z,9.40
2022-09-12T03:42:53.264Z,9.21
2022-09-12T03:45:22.552Z,9.35
2022-09-12T03:47:56.799Z,9.37
2022-09-12T03:50:34.129Z,9.33
2022-09-12T03:53:05.681Z,9.30
2022-09-12T03:58:11.170Z,9.33
2022-09-12T04:00:42.509Z,9.33
2022-09-12T04:03:12.061Z,9.32
2022-09-12T04:05:41.138Z,9.26
2022-09-12T04:08:14.142Z,9.17
2022-09-12T04:10:43.634Z,9.33
2022-09-12T04:13:17.986Z,9.29
2022-09-12T04:15:57.961Z,9.35
2022-09-12T04:18:27.104Z,9.27
2022-09-12T04:20:56.471Z,9.22
2022-09-12T04:23:32.644Z,9.24
2022-09-12T04:26:03.439Z,9.15
2022-09-12T04:28:32.702Z,9.18
2022-09-12T04:31:08.604Z,9.18
2022-09-12T04:33:43.630Z,9.18
2022-09-12T04:36:31.360Z,9.18
2022-09-12T04:39:03.339Z,9.20
2022-09-12T04:41:34.300Z,9.22
2022-09-12T04:44:12.118Z,9.21
2022-09-12T04:46:44.268Z,9.22
2022-09-12T04:49:14.306Z,9.24
2022-09-12T04:51:44.543Z,9.24
2022-09-12T04:54:18.218Z,9.21
2022-09-12T04:56:50.178Z,9.24
2022-09-12T04:59:25.490Z,9.20
2022-09-12T05:02:00.963Z,9.20
2022-09-12T05:04:36.198Z,9.25
2022-09-12T05:07:05.476Z,9.25
2022-09-12T05:09:41.765Z,9.15
2022-09-12T05:12:10.893Z,9.36
2022-09-12T05:14:40.224Z,9.35
2022-09-12T05:17:09.567Z,9.42
2022-09-12T05:19:38.807Z,9.45
2022-09-12T05:22:08.091Z,9.41
2022-09-12T05:24:50.590Z,9.38
2022-09-12T05:27:20.579Z,9.48
2022-09-12T05:29:50.049Z,9.49
2022-09-12T05:32:19.252Z,9.34
2022-09-12T05:34:48.570Z,9.65
2022-09-12T05:37:18.479Z,9.61
2022-09-12T05:39:49.608Z,9.66
2022-09-12T05:42:18.686Z,9.77
2022-09-12T05:44:49.743Z,9.83
2022-09-12T05:47:19.134Z,9.92
2022-09-12T05:49:50.862Z,9.96
2022-09-12T05:52:19.948Z,10.02
2022-09-12T05:54:50.820Z,9.93
2022-09-12T05:57:20.011Z,9.83
2022-09-12T05:59:49.381Z,9.71
2022-09-12T06:02:18.770Z,9.75
2022-09-12T06:04:48.438Z,9.77
2022-09-12T06:07:27.778Z,9.72
2022-09-12T06:09:59.830Z,9.69
2022-09-12T06:12:39.058Z,9.75
2022-09-12T06:15:09.445Z,9.70
2022-09-12T06:17:38.512Z,9.67
2022-09-12T06:20:14.019Z,9.59
2022-09-12T06:22:43.730Z,9.58
2022-09-12T06:25:14.924Z,9.55
2022-09-12T06:27:43.926Z,9.58
2022-09-12T06:30:25.625Z,9.58
2022-09-12T06:32:56.411Z,9.56
2022-09-12T06:35:26.220Z,9.61
2022-09-12T06:38:00.251Z,9.45
2022-09-12T06:40:36.630Z,9.65
2022-09-12T06:43:05.669Z,9.81
2022-09-12T06:45:35.387Z,9.72
2022-09-12T06:48:05.327Z,10.01
2022-09-12T06:50:34.435Z,10.13
2022-09-12T06:53:03.763Z,10.28
2022-09-12T06:55:34.850Z,10.49
2022-09-12T06:58:14.939Z,10.76
2022-09-12T07:00:43.991Z,10.97
2022-09-12T07:03:13.402Z,11.16
2022-09-12T07:05:42.399Z,11.27
2022-09-12T07:08:16.542Z,11.47
2022-09-12T07:10:47.565Z,11.64
2022-09-12T07:13:24.152Z,11.75
2022-09-12T07:15:53.543Z,11.86
2022-09-12T07:18:27.715Z,12.02
2022-09-12T07:20:56.888Z,12.14
2022-09-12T07:23:25.869Z,12.25
2022-09-12T07:25:58.049Z,12.38
2022-09-12T07:28:29.818Z,12.41
2022-09-12T07:30:59.819Z,12.51
2022-09-12T07:33:30.606Z,12.39
2022-09-12T07:36:06.012Z,12.27
2022-09-12T07:38:35.197Z,12.13
2022-09-12T07:41:12.609Z,12.15
2022-09-12T07:43:42.092Z,12.19
2022-09-12T07:46:11.982Z,12.07
2022-09-12T07:48:41.976Z,11.88
2022-09-12T07:51:12.918Z,11.68
2022-09-12T07:53:43.777Z,11.60
2022-09-12T07:56:15.349Z,11.52
2022-09-12T07:58:45.261Z,11.51
2022-09-12T08:01:20.974Z,11.49
2022-09-12T08:03:52.556Z,11.39
2022-09-12T08:06:23.890Z,11.45
2022-09-12T08:08:53.799Z,11.39
2022-09-12T08:11:27.412Z,11.41
2022-09-12T08:13:57.789Z,11.41
2022-09-12T08:16:29.872Z,11.58
2022-09-12T08:18:59.631Z,11.81
2022-09-12T08:21:35.425Z,11.98
2022-09-12T08:24:06.863Z,11.91
2022-09-12T08:26:37.969Z,12.03
2022-09-12T08:29:07.129Z,12.02
2022-09-12T08:31:36.934Z,12.07
2022-09-12T08:34:07.676Z,12.01
2022-09-12T08:36:37.250Z,12.09
2022-09-12T08:39:16.078Z,12.08
2022-09-12T08:41:49.305Z,12.09
2022-09-12T08:44:44.152Z,12.02
2022-09-12T08:47:24.458Z,11.84
2022-09-12T08:50:14.584Z,11.79
2022-09-12T08:52:52.660Z,11.95
2022-09-12T08:58:15.664Z,12.14
2022-09-12T09:00:53.603Z,12.22
2022-09-12T09:03:46.324Z,12.16
2022-09-12T09:06:31.166Z,12.20
2022-09-12T09:09:07.688Z,12.32
2022-09-12T09:11:50.702Z,12.55
2022-09-12T09:14:51.451Z,12.75
2022-09-12T09:17:33.148Z,12.81
2022-09-12T09:20:11.327Z,12.79
2022-09-12T09:22:45.775Z,12.70
2022-09-12T09:25:22.886Z,12.71
2022-09-12T09:28:07.616Z,12.85
2022-09-12T09:30:39.507Z,12.75
2022-09-12T09:33:12.201Z,12.96
2022-09-12T09:35:47.041Z,12.85
2022-09-12T09:38:27.147Z,12.80
2022-09-12T09:41:14.369Z,12.90
2022-09-12T09:43:44.166Z,13.08
2022-09-12T09:46:15.830Z,13.22
2022-09-12T09:48:49.119Z,13.20
2022-09-12T09:51:24.379Z,13.14
2022-09-12T09:53:56.278Z,13.11
2022-09-12T09:56:29.411Z,13.40
2022-09-12T09:59:03.876Z,13.66
2022-09-12T10:01:36.297Z,13.70
2022-09-12T10:04:06.953Z,14.00
2022-09-12T10:06:39.744Z,14.13
2022-09-12T10:09:27.657Z,14.20
2022-09-12T10:11:58.926Z,14.07
2022-09-12T10:14:43.221Z,14.03
2022-09-12T10:17:34.222Z,14.11
2022-09-12T10:20:22.740Z,14.11
2022-09-12T10:22:52.225Z,13.99
2022-09-12T10:25:22.422Z,13.91
2022-09-12T10:27:56.896Z,13.78
2022-09-12T10:30:31.154Z,13.87
2022-09-12T10:33:14.762Z,14.12
2022-09-12T10:35:51.560Z,13.92
2022-09-12T10:38:26.348Z,13.73
2022-09-12T10:41:01.206Z,13.80
2022-09-12T10:43:36.887Z,13.78
2022-09-12T10:46:29.583Z,13.85
2022-09-12T10:49:37.675Z,13.89
2022-09-12T10:52:22.925Z,13.98
2022-09-12T10:54:52.762Z,14.06
2022-09-12T10:57:50.790Z,14.16
2022-09-12T11:00:27.282Z,14.23
2022-09-12T11:03:05.556Z,14.45
2022-09-12T11:05:52.804Z,14.57
2022-09-12T11:08:57.367Z,14.66
2022-09-12T11:11:38.852Z,14.67
2022-09-12T11:14:26.322Z,14.55
2022-09-12T11:17:11.644Z,14.54
2022-09-12T11:20:00.728Z,14.60
2022-09-12T11:22:45.784Z,14.45
2022-09-12T11:25:30.967Z,14.35
2022-09-12T11:28:20.936Z,14.21
2022-09-12T11:31:15.331Z,14.25
2022-09-12T11:33:45.960Z,14.11
2022-09-12T11:36:28.781Z,14.13
2022-09-12T11:39:14.775Z,14.34
2022-09-12T11:41:47.593Z,14.26
2022-09-12T11:44:24.900Z,14.28
2022-09-12T11:46:54.603Z,14.18
2022-09-12T11:49:35.283Z,14.20
2022-09-12T11:52:15.537Z,14.31
2022-09-12T11:54:53.857Z,14.29
2022-09-12T11:57:35.785Z,14.51
2022-09-12T12:00:19.440Z,14.48
2022-09-12T12:03:00.608Z,14.49
2022-09-12T12:05:36.140Z,14.46
2022-09-12T12:08:08.068Z,14.26
2022-09-12T12:10:39.751Z,14.51
2022-09-12T12:13:18.291Z,14.21
2022-09-12T12:15:50.634Z,13.94
2022-09-12T12:18:23.610Z,13.72
2022-09-12T12:20:53.581Z,13.73
2022-09-12T12:23:28.774Z,13.86
2022-09-12T12:26:02.202Z,13.86
2022-09-12T12:29:00.650Z,13.94
2022-09-12T12:31:31.238Z,14.00
2022-09-12T12:34:23.668Z,14.04
2022-09-12T12:36:52.748Z,14.02
2022-09-12T12:40:00.753Z,14.22
2022-09-12T12:43:10.797Z,14.38
2022-09-12T12:45:51.800Z,14.10
2022-09-12T12:48:22.426Z,13.92
2022-09-12T12:57:04.367Z,13.66
2022-09-12T12:59:33.940Z,13.76
2022-09-12T13:02:03.272Z,13.79
2022-09-12T13:04:34.966Z,13.91
2022-09-12T13:07:08.651Z,13.86
2022-09-12T13:09:46.108Z,13.72
2022-09-12T13:12:25.848Z,13.68
2022-09-12T13:15:01.358Z,13.60
2022-09-12T13:17:43.029Z,13.62
2022-09-12T13:20:30.958Z,13.70
2022-09-12T13:23:00.563Z,13.74
2022-09-12T13:25:37.750Z,13.78
2022-09-12T13:28:19.626Z,13.92
2022-09-12T13:30:56.641Z,13.93
2022-09-12T13:33:36.684Z,13.94
2022-09-12T13:36:20.685Z,14.02
2022-09-12T13:39:05.849Z,14.10
2022-09-12T13:41:53.512Z,14.02
2022-09-12T13:44:26.255Z,13.61
2022-09-12T13:46:57.562Z,14.19
2022-09-12T13:49:34.569Z,14.13
2022-09-12T13:52:07.141Z,14.07
2022-09-12T13:54:39.776Z,14.08
2022-09-12T13:57:30.458Z,14.17
2022-09-12T14:00:05.434Z,14.24
2022-09-12T14:02:37.378Z,14.25
2022-09-12T14:05:19.656Z,14.34
2022-09-12T14:07:56.574Z,14.31
2022-09-12T14:10:34.353Z,14.25
2022-09-12T14:13:06.768Z,14.22
2022-09-12T14:15:39.490Z,14.20
2022-09-12T14:18:10.026Z,14.10
2022-09-12T14:20:42.537Z,14.18
2022-09-12T14:23:21.070Z,14.19
2022-09-12T14:25:51.886Z,14.00
2022-09-12T14:28:23.634Z,13.95
2022-09-12T14:31:06.752Z,13.94
2022-09-12T14:33:53.948Z,13.82
2022-09-12T14:36:27.207Z,13.69
2022-09-12T14:39:04.417Z,13.59
2022-09-12T14:41:37.822Z,13.46
2022-09-12T14:44:10.573Z,13.41
2022-09-12T14:46:52.477Z,13.31
2022-09-12T14:49:28.584Z,13.35
2022-09-12T14:52:02.961Z,13.35
2022-09-12T14:54:47.146Z,13.36
2022-09-12T14:57:34.105Z,13.43
2022-09-12T15:00:21.849Z,13.48
2022-09-12T15:02:55.080Z,13.38
2022-09-12T15:05:29.594Z,13.34
2022-09-12T15:08:01.185Z,13.24
2022-09-12T15:10:33.256Z,13.17
2022-09-12T15:13:13.768Z,13.08
2022-09-12T15:15:44.646Z,13.00
2022-09-12T15:18:21.769Z,12.87
2022-09-12T15:20:53.529Z,12.74
2022-09-12T15:23:31.285Z,12.76
2022-09-12T15:26:00.949Z,12.53
2022-09-12T15:28:31.862Z,12.37
2022-09-12T15:31:07.801Z,12.33
2022-09-12T15:33:39.184Z,12.35
2022-09-12T15:36:17.242Z,12.37
2022-09-12T15:38:52.409Z,12.29
2022-09-12T15:41:33.334Z,12.11
2022-09-12T15:44:07.676Z,12.20
2022-09-12T15:46:36.939Z,12.10
2022-09-12T15:49:08.851Z,12.14
2022-09-12T15:51:38.407Z,12.11
2022-09-12T15:54:07.764Z,11.95
2022-09-12T15:56:36.968Z,11.99
2022-09-12T15:59:07.902Z,11.97
2022-09-12T16:01:37.306Z,11.91
2022-09-12T16:04:23.398Z,11.89
2022-09-12T16:06:54.946Z,11.80
2022-09-12T16:12:00.135Z,11.69
2022-09-12T16:14:29.408Z,11.73
2022-09-12T16:17:03.990Z,11.72
2022-09-12T16:19:35.208Z,11.61
2022-09-12T16:22:04.572Z,11.53
2022-09-12T16:24:33.608Z,11.47
2022-09-12T16:27:02.930Z,11.49
2022-09-12T16:29:32.569Z,11.45
2022-09-12T16:32:02.265Z,11.48
2022-09-12T16:34:31.346Z,11.41
2022-09-12T16:37:02.675Z,11.39
2022-09-12T16:39:31.981Z,11.31
2022-09-12T16:42:01.221Z,11.31
2022-09-12T16:44:31.704Z,11.25
2022-09-12T16:47:00.809Z,11.39
2022-09-12T16:49:30.834Z,11.37
2022-09-12T16:52:02.501Z,11.34
2022-09-12T16:54:31.535Z,11.44
2022-09-12T16:57:01.252Z,11.28
2022-09-12T16:59:30.606Z,11.19
2022-09-12T17:01:59.948Z,11.07
2022-09-12T17:04:30.096Z,11.05
2022-09-12T17:06:59.778Z,11.10
2022-09-12T17:09:36.019Z,10.99
2022-09-12T17:12:06.223Z,10.98
2022-09-12T17:14:35.492Z,11.03
2022-09-12T17:17:07.155Z,10.99
2022-09-12T17:19:36.381Z,10.97
2022-09-12T17:22:05.777Z,11.00
2022-09-12T17:24:37.095Z,10.98
2022-09-12T17:27:06.502Z,11.00
2022-09-12T17:29:36.718Z,10.98
2022-09-12T17:32:14.429Z,10.98
2022-09-12T17:34:46.243Z,10.98
2022-09-12T17:37:15.578Z,11.00
2022-09-12T17:39:58.289Z,11.02
2022-09-12T17:42:28.249Z,10.98
2022-09-12T17:44:57.960Z,11.01
2022-09-12T17:47:38.844Z,10.82
2022-09-12T17:50:30.407Z,11.07
2022-09-12T17:52:59.511Z,11.10
2022-09-12T17:55:31.928Z,11.10
2022-09-12T17:58:09.479Z,11.14
2022-09-12T18:00:56.730Z,11.12
2022-09-12T18:03:28.682Z,11.17
2022-09-12T18:05:58.713Z,11.17
2022-09-12T18:08:27.745Z,11.17
2022-09-12T18:11:06.444Z,11.04
2022-09-12T18:13:38.343Z,11.16
2022-09-12T18:16:10.142Z,11.16
2022-09-12T18:18:39.349Z,11.29
2022-09-12T18:21:10.384Z,11.18
2022-09-12T18:23:39.770Z,11.22
2022-09-12T18:26:13.548Z,11.19
2022-09-12T18:28:46.159Z,11.20
2022-09-12T18:31:18.174Z,11.19
2022-09-12T18:33:47.868Z,11.15
2022-09-12T18:36:19.153Z,11.14
2022-09-12T18:38:49.504Z,11.06
2022-09-12T18:41:22.460Z,11.14
2022-09-12T18:44:06.456Z,11.16
2022-09-12T18:46:37.395Z,11.10
2022-09-12T18:49:07.337Z,11.14
2022-09-12T18:51:39.666Z,11.13
2022-09-12T18:54:17.422Z,11.05
2022-09-12T18:56:48.608Z,11.10
2022-09-12T18:59:17.821Z,11.08
2022-09-12T19:01:47.637Z,11.07
2022-09-12T19:04:22.031Z,10.83
2022-09-12T19:06:51.337Z,11.03
2022-09-12T19:09:22.477Z,11.01
2022-09-12T19:11:53.769Z,11.02
2022-09-12T19:14:25.868Z,10.99
2022-09-12T19:16:55.177Z,11.02
2022-09-12T19:19:24.426Z,10.95
2022-09-12T19:22:05.305Z,10.93
2022-09-12T19:24:34.957Z,11.01
2022-09-12T19:27:07.343Z,10.90
2022-09-12T19:29:36.689Z,10.95
2022-09-12T19:32:06.049Z,10.94
2022-09-12T19:34:35.397Z,10.93
2022-09-12T19:37:05.114Z,10.91
2022-09-12T19:39:34.622Z,10.92
2022-09-12T19:42:06.412Z,10.78
2022-09-12T19:44:35.244Z,11.04
2022-09-12T19:47:04.368Z,10.95
2022-09-12T19:49:43.880Z,10.90
2022-09-12T19:52:17.237Z,10.87
2022-09-12T19:54:51.854Z,10.79
2022-09-12T19:57:22.861Z,10.82
2022-09-12T19:59:52.050Z,10.78
2022-09-12T20:02:21.687Z,10.77
2022-09-12T20:04:51.114Z,10.75
2022-09-12T20:07:25.364Z,10.72
2022-09-12T20:09:55.133Z,10.71
2022-09-12T20:12:33.709Z,10.71
2022-09-12T20:15:03.024Z,10.73
2022-09-12T20:17:32.460Z,10.68
2022-09-12T20:20:01.808Z,10.76
2022-09-12T20:22:34.734Z,10.71
2022-09-12T20:25:11.714Z,10.67
2022-09-12T20:27:42.823Z,10.45
2022-09-12T20:30:14.145Z,10.60
2022-09-12T20:32:44.217Z,10.63
2022-09-12T20:35:16.943Z,10.61
2022-09-12T20:37:46.573Z,10.63
2022-09-12T20:40:15.832Z,10.51
2022-09-12T20:42:47.130Z,10.59
2022-09-12T20:45:16.424Z,10.58
2022-09-12T20:47:45.636Z,10.56
2022-09-12T20:50:14.862Z,10.54
2022-09-12T20:52:45.805Z,10.50
2022-09-12T20:55:15.058Z,10.57
2022-09-12T20:57:44.145Z,10.57
2022-09-12T21:00:16.408Z,10.49
2022-09-12T21:02:45.788Z,10.47
2022-09-12T21:05:15.100Z,10.49
2022-09-12T21:07:44.212Z,10.48
2022-09-12T21:10:13.424Z,10.29
2022-09-12T21:12:42.550Z,10.39
2022-09-12T21:15:12.203Z,10.49
2022-09-12T21:17:43.274Z,10.48
2022-09-12T21:20:12.967Z,10.46
2022-09-12T21:22:44.088Z,10.41
2022-09-12T21:25:13.492Z,10.31
2022-09-12T21:27:47.625Z,10.41
2022-09-12T21:30:17.233Z,10.34
2022-09-12T21:32:48.354Z,10.33
2022-09-12T21:35:17.834Z,10.32
2022-09-12T21:37:53.436Z,10.31
2022-09-12T21:40:22.672Z,10.25
2022-09-12T21:42:51.817Z,10.33
2022-09-12T21:45:21.276Z,10.39
2022-09-12T21:47:52.421Z,10.39
2022-09-12T21:50:21.969Z,10.40
2022-09-12T21:52:51.045Z,10.38
2022-09-12T21:55:26.826Z,10.36
2022-09-12T21:57:56.199Z,10.35
2022-09-12T22:00:25.392Z,10.20
2022-09-12T22:02:56.841Z,10.36
2022-09-12T22:05:29.502Z,10.29
2022-09-12T22:08:04.494Z,10.38
2022-09-12T22:10:33.721Z,10.34
2022-09-12T22:13:02.916Z,10.30
2022-09-12T22:15:40.430Z,10.20
2022-09-12T22:18:12.485Z,10.04
2022-09-12T22:20:41.700Z,10.13
2022-09-12T22:23:26.245Z,10.14
2022-09-12T22:26:02.001Z,10.23
2022-09-12T22:28:31.729Z,10.17
2022-09-12T22:31:00.908Z,10.08
2022-09-12T22:33:32.444Z,10.04
2022-09-12T22:36:01.993Z,9.99
2022-09-12T22:38:30.993Z,9.99
2022-09-12T22:41:06.358Z,9.95
2022-09-12T22:43:42.268Z,9.89
2022-09-12T22:46:17.776Z,9.69
2022-09-12T22:48:48.859Z,9.78
2022-09-12T22:51:18.600Z,9.65
2022-09-12T22:53:47.811Z,9.58
2022-09-12T22:56:17.032Z,9.37
2022-09-12T22:58:46.212Z,9.42
2022-09-12T23:01:16.418Z,9.38
2022-09-12T23:03:45.963Z,9.34
2022-09-12T23:06:17.162Z,9.34
2022-09-12T23:08:46.332Z,9.28
2022-09-12T23:11:17.437Z,9.32
2022-09-12T23:13:53.972Z,9.37
2022-09-12T23:16:29.803Z,9.37
2022-09-12T23:19:03.982Z,9.26
2022-09-12T23:21:35.396Z,9.32
2022-09-12T23:24:05.020Z,9.37
2022-09-12T23:26:34.074Z,9.30
2022-09-12T23:29:05.609Z,9.34
2022-09-12T23:31:37.220Z,9.30
2022-09-12T23:34:12.235Z,9.31
2022-09-12T23:36:43.233Z,9.30
2022-09-12T23:39:12.536Z,9.33
2022-09-12T23:41:42.547Z,9.27
2022-09-12T23:44:11.806Z,9.22
2022-09-12T23:46:40.895Z,9.13
2022-09-12T23:49:10.261Z,9.16
2022-09-12T23:51:44.328Z,9.18
2022-09-12T23:54:15.750Z,9.19
2022-09-12T23:56:45.177Z,9.18
2022-09-12T23:59:14.224Z,9.14
